AirNav   Air Wisconsin pilot careers
 
 1277 users online  

57AZ La Cholla Airpark
Tucson, Arizona, USA

GOING TO TUCSON?


FAA INFORMATION EFFECTIVE 01 FEBRUARY 2018

Location

FAA Identifier: 57AZ
Lat/Long: 32-26-53.0218N / 111-00-06.3713W
32-26.883697N / 111-00.106188W
32.4480616 / -111.0017698
(estimated)
Elevation: 2953 ft. / 900 m (estimated)
Variation: 12E (1985)
From city: 8 miles NW of TUCSON, AZ
Time zone: UTC -7 (year round; does not observe DST)
Zip code: 85737

Airport Operations

Airport use: Private use. Permission required prior to landing
Activation date: 04/1943
Control tower: no
ARTCC: ALBUQUERQUE CENTER
FSS: PRESCOTT FLIGHT SERVICE STATION
Attendance: ON CALL
PPR CALL (520) 297-8096.
Wind indicator: lighted
Segmented circle: no
Lights: ACTVT LIRL & REIL RY 01/19 - 122.9.

Airport Communications

WX AWOS-3 at AVQ (11 nm W): 118.375 (520-682-4104)
WX AWOS-3 at MZJ (17 nm W): 130.375 (520-682-3519)
WX ASOS at TUS (20 nm S): PHONE 520-295-5727

Nearby radio navigation aids

VOR radial/distance  VOR name  Freq  Var
TUSr336/21.6TUCSON VORTAC116.0012E

 
NDB name  Hdg/Dist  Freq  Var  ID
MARANA067/11.024512EAVQ .- ...- --.-
RYAN012/20.233812ERYN .-. -.-- -.
ROBLES027/28.922012ERBJ .-. -... .---

Airport Services

Fuel available: 100LL
Airframe service: NONE
Powerplant service: NONE

Runway Information

Runway 1/19

Dimensions: 4670 x 44 ft. / 1423 x 13 m
Surface: asphalt, in good condition
Runway edge lights: low intensity
RUNWAY 1  RUNWAY 19
Latitude: 32-26.521815N32-27.245578N
Longitude: 111-00.261523W110-59.950853W
Elevation: 2887.4 ft.2953.0 ft.
Traffic pattern: leftleft
Runway heading: 008 magnetic, 020 true188 magnetic, 200 true
Displaced threshold: 250 ft.327 ft.
Obstructions: plinenone

Helipad HI

Dimensions: 44 x 44 ft. / 13 x 13 m
Surface: asphalt, in good condition
Traffic pattern: leftleft

Airport Ownership and Management from official FAA records

Ownership: Privately-owned
Owner: LA CHOLLA AIRPARK INC
1777 W. CESSNA WAY
ORO VALLEY, AZ 85755
Phone 520-297-8096
Manager: LARRY NEWMAN
1777 W. CESSNA WAY
ORO VALLEY, AZ 85755
Phone 520-297-8096
FAX: SAME AS PHONE - (520) 297-8096

Airport Operational Statistics

Aircraft based on the field: 95
Single engine airplanes: 90
Multi engine airplanes: 3
Helicopters: 2
    
Aircraft operations: avg 77/week *
100% local general aviation
* for 12-month period ending 31 December 1999

Additional Remarks

ROTORCRAFT USE STANDARD LEFT-HAND TRAFFIC PATTERN TO THE AIRPORT. TAXI TO RY CENTERLINE AND MANEUVER WEST TO PARK, 125 FEET WEST OF RY CENTERLINE. FOLLOW SIGNS TO PARKING.
MONITOR 122.9 INVOF ARPT.

Instrument Procedures

There are no published instrument procedures at 57AZ.

Some nearby airports with instrument procedures:

KAVQ - Marana Regional Airport (11 nm W)
KDMA - Davis Monthan Air Force Base (18 nm S)
KTUS - Tucson International Airport (20 nm S)
KRYN - Ryan Field Airport (20 nm SW)
P08 - Coolidge Municipal Airport (36 nm NW)
 
Loc | Ops | Rwys | IFR | FBO | Links
Com | Nav | Svcs | Stats | Notes

AirNav Hotels Sweepstakes
 
Area around 57AZ (La Cholla Airpark)
 
Road maps at: MapQuest Bing Google
 
Aerial photo
WARNING: Photo may not be current or correct
Aerial photo of 57AZ (La Cholla Airpark)
Do you have a better or more recent aerial photo of La Cholla Airpark that you would like to share? If so, please send us your photo.

 
Sectional chart

 
Airport distance calculator
Flying to La Cholla Airpark? Find the distance to fly.

From to 57AZ

Sunrise and sunset
Times for 22-Feb-2018
 Local
(UTC-7)
 Zulu
(UTC)
Morning civil twilight06:3613:36
Sunrise07:0114:01
Sunset18:1501:15
Evening civil twilight18:3901:39

Current date and time
Zulu (UTC)  22-Feb-2018 14:47:29
Local (UTC-7)  22-Feb-2018 07:47:29
 
METAR
KAVQ 
11nm W 
221435Z AUTO 00000KT 10SM CLR 03/M03 A3018 RMK AO2 T00281028
KDMA 
18nm S 
221358Z AUTO 15006KT 10SM CLR 02/M03 A3015 RMK AO2 SLP204 T00161027
KTUS 
19nm S 
221353Z 14003KT 10SM CLR 03/M02 A3017 RMK AO2 SLP209 T00331022
KRYN 
20nm SW 
221345Z 00000KT 10SM CLR 03/M01 A3018
TAF
KDMA 
18nm S 
221402Z 2214/2320 15006KT 9999 FEW060 QNH3013INS BECMG 2219/2220 29009KT 9999 SKC QNH3006INS BECMG 2305/2306 15005KT 9999 FEW070 QNH3011INS BECMG 2316/2317 24009KT 9999 SCT070 QNH3008INS BECMG 2319/2320 26012G18KT 9999 BKN070 QNH3006INS TX14/2223Z TN02/2214Z
KTUS 
19nm S 
221128Z 2212/2312 20005KT P6SM FEW150 FM222000 27009KT P6SM SKC FM230300 15006KT P6SM FEW150
NOTAMs
Click for the latest NOTAMs
NOTAMs are issued by the DoD/FAA and will open in a separate window not controlled by AirNav.

 

 
 

Would you like to see your business listed on this page?

 If your business provides an interesting product or service to pilots, flight crews, aircraft, or users of the La Cholla Airpark, you should consider listing it here.  To start the listing process, click on the button below
 
Add a business
 

Other Pages about La Cholla Airpark

Official airport web site
 
Update a link
 
Copyright © AirNav, LLC. All rights reserved. Privacy Policy  Contact